createdAt,value
2022-11-03T00:01:36.143Z,12.20
2022-11-03T00:04:04.989Z,12.16
2022-11-03T00:06:34.905Z,12.13
2022-11-03T00:09:05.669Z,12.13
2022-11-03T00:11:35.229Z,12.11
2022-11-03T00:14:04.769Z,12.05
2022-11-03T00:16:33.534Z,12.06
2022-11-03T00:19:01.809Z,11.99
2022-11-03T00:21:30.719Z,11.96
2022-11-03T00:24:02.426Z,11.92
2022-11-03T00:26:32.281Z,11.87
2022-11-03T00:29:02.331Z,11.88
2022-11-03T00:31:32.467Z,11.84
2022-11-03T00:34:02.058Z,11.84
2022-11-03T00:36:32.272Z,11.89
2022-11-03T00:39:02.293Z,11.82
2022-11-03T00:41:30.525Z,11.81
2022-11-03T00:43:58.758Z,11.87
2022-11-03T00:46:27.668Z,11.88
2022-11-03T00:48:55.839Z,11.92
2022-11-03T00:51:26.182Z,11.97
2022-11-03T00:53:55.815Z,11.94
2022-11-03T00:56:27.022Z,11.97
2022-11-03T00:58:56.120Z,12.03
2022-11-03T01:01:25.689Z,12.00
2022-11-03T01:04:13.314Z,12.01
2022-11-03T01:06:53.447Z,12.02
2022-11-03T01:09:23.415Z,11.92
2022-11-03T01:11:58.061Z,12.01
2022-11-03T01:14:27.731Z,12.01
2022-11-03T01:16:56.066Z,12.00
2022-11-03T01:19:25.379Z,11.96
2022-11-03T01:21:53.942Z,11.92
2022-11-03T01:24:22.728Z,11.97
2022-11-03T01:26:51.255Z,11.99
2022-11-03T01:29:21.287Z,11.88
2022-11-03T01:31:49.787Z,11.91
2022-11-03T01:34:19.882Z,11.93
2022-11-03T01:36:48.983Z,12.02
2022-11-03T01:39:18.911Z,12.04
2022-11-03T01:41:48.560Z,12.00
2022-11-03T01:44:30.383Z,12.00
2022-11-03T01:47:08.571Z,12.00
2022-11-03T01:49:43.313Z,11.99
2022-11-03T01:52:17.423Z,12.00
2022-11-03T01:54:49.658Z,11.94
2022-11-03T01:57:23.828Z,11.91
2022-11-03T01:59:55.446Z,11.92
2022-11-03T02:02:28.762Z,11.91
2022-11-03T02:05:00.155Z,11.92
2022-11-03T02:07:35.021Z,11.94
2022-11-03T02:10:04.224Z,11.94
2022-11-03T02:12:33.318Z,11.94
2022-11-03T02:15:06.284Z,12.01
2022-11-03T02:17:35.574Z,12.08
2022-11-03T02:20:07.463Z,12.06
2022-11-03T02:22:53.674Z,12.10
2022-11-03T02:25:47.403Z,12.12
2022-11-03T02:28:19.741Z,12.20
2022-11-03T02:31:01.022Z,12.20
2022-11-03T02:33:36.843Z,12.20
2022-11-03T02:36:12.037Z,12.18
2022-11-03T02:38:46.489Z,12.20
2022-11-03T02:41:19.312Z,12.27
2022-11-03T02:43:49.905Z,12.21
2022-11-03T02:46:19.201Z,12.19
2022-11-03T02:48:49.350Z,12.16
2022-11-03T02:51:17.573Z,12.14
2022-11-03T02:53:53.798Z,12.13
2022-11-03T02:56:25.922Z,12.12
2022-11-03T02:59:00.532Z,12.08
2022-11-03T03:01:35.080Z,12.08
2022-11-03T03:04:07.416Z,12.15
2022-11-03T03:06:40.472Z,12.16
2022-11-03T03:09:12.570Z,12.19
2022-11-03T03:11:44.784Z,12.16
2022-11-03T03:14:15.823Z,12.16
2022-11-03T03:16:50.109Z,12.20
2022-11-03T03:19:31.602Z,12.18
2022-11-03T03:22:04.785Z,12.20
2022-11-03T03:24:39.323Z,12.21
2022-11-03T03:27:13.941Z,12.25
2022-11-03T03:29:47.431Z,12.23
2022-11-03T03:32:18.645Z,12.19
2022-11-03T03:34:50.197Z,12.17
2022-11-03T03:37:21.248Z,12.14
2022-11-03T03:39:54.854Z,12.18
2022-11-03T03:42:28.438Z,12.14
2022-11-03T03:44:58.134Z,12.16
2022-11-03T03:47:29.841Z,12.16
2022-11-03T03:49:58.972Z,12.12
2022-11-03T03:52:27.823Z,12.18
2022-11-03T03:54:56.879Z,12.20
2022-11-03T03:57:29.504Z,12.12
2022-11-03T03:59:57.678Z,12.11
2022-11-03T04:02:25.973Z,12.06
2022-11-03T04:04:54.202Z,12.19
2022-11-03T04:07:43.668Z,12.19
2022-11-03T04:10:12.602Z,12.17
2022-11-03T04:13:01.298Z,12.19
2022-11-03T04:15:47.565Z,12.20
2022-11-03T04:18:33.879Z,12.21
2022-11-03T04:21:19.851Z,12.25
2022-11-03T04:23:48.173Z,12.19
2022-11-03T04:26:18.352Z,12.22
2022-11-03T04:28:47.889Z,12.22
2022-11-03T04:31:17.684Z,12.22
2022-11-03T04:33:46.132Z,12.20
2022-11-03T04:36:18.130Z,12.22
2022-11-03T04:38:46.734Z,12.21
2022-11-03T04:41:18.570Z,12.22
2022-11-03T04:43:48.515Z,12.20
2022-11-03T04:46:18.790Z,12.22
2022-11-03T04:48:47.718Z,12.29
2022-11-03T04:51:18.004Z,12.29
2022-11-03T04:53:51.736Z,12.27
2022-11-03T04:56:23.197Z,12.25
2022-11-03T04:58:53.412Z,12.22
2022-11-03T05:01:24.727Z,12.25
2022-11-03T05:03:54.875Z,12.20
2022-11-03T05:06:24.896Z,12.20
2022-11-03T05:08:56.553Z,12.20
2022-11-03T05:11:32.270Z,12.20
2022-11-03T05:14:04.332Z,12.21
2022-11-03T05:16:32.853Z,12.22
2022-11-03T05:19:01.744Z,12.21
2022-11-03T05:21:30.270Z,12.27
2022-11-03T05:24:04.710Z,12.26
2022-11-03T05:26:36.075Z,12.25
2022-11-03T05:29:14.381Z,12.27
2022-11-03T05:31:44.996Z,12.30
2022-11-03T05:34:34.198Z,12.31
2022-11-03T05:37:26.130Z,12.32
2022-11-03T05:39:57.778Z,12.33
2022-11-03T05:42:33.036Z,12.32
2022-11-03T05:45:05.792Z,12.32
2022-11-03T05:47:37.505Z,12.38
2022-11-03T05:50:17.415Z,12.33
2022-11-03T05:52:47.540Z,12.38
2022-11-03T05:55:31.022Z,12.44
2022-11-03T05:58:02.242Z,12.40
2022-11-03T06:00:34.300Z,12.36
2022-11-03T06:03:02.857Z,12.42
2022-11-03T06:05:33.541Z,12.43
2022-11-03T06:08:04.152Z,12.42
2022-11-03T06:10:37.046Z,12.43
2022-11-03T06:13:12.573Z,12.49
2022-11-03T06:15:44.995Z,12.52
2022-11-03T06:18:17.236Z,12.55
2022-11-03T06:20:52.611Z,12.57
2022-11-03T06:23:21.943Z,12.57
2022-11-03T06:25:53.734Z,12.58
2022-11-03T06:28:40.987Z,12.61
2022-11-03T06:31:22.033Z,12.62
2022-11-03T06:33:53.443Z,12.65
2022-11-03T06:36:23.697Z,12.64
2022-11-03T06:38:55.695Z,12.66
2022-11-03T06:41:27.246Z,12.70
2022-11-03T06:43:57.050Z,12.71
2022-11-03T06:46:27.620Z,12.72
2022-11-03T06:48:58.966Z,12.71
2022-11-03T06:51:29.226Z,12.75
2022-11-03T06:54:00.602Z,12.72
2022-11-03T06:56:32.669Z,12.74
2022-11-03T06:59:02.790Z,12.79
2022-11-03T07:01:34.652Z,12.84
2022-11-03T07:04:04.926Z,12.82
2022-11-03T07:06:37.670Z,12.87
2022-11-03T07:09:09.836Z,12.84
2022-11-03T07:11:44.135Z,12.86
2022-11-03T07:14:16.117Z,12.80
2022-11-03T07:16:48.633Z,12.84
2022-11-03T07:19:21.165Z,12.82
2022-11-03T07:21:51.383Z,12.86
2022-11-03T07:24:23.827Z,12.85
2022-11-03T07:26:57.823Z,12.87
2022-11-03T07:29:29.923Z,12.92
2022-11-03T07:32:01.133Z,13.00
2022-11-03T07:34:33.792Z,13.03
2022-11-03T07:37:02.264Z,12.97
2022-11-03T07:39:35.865Z,12.99
2022-11-03T07:42:04.763Z,12.95
2022-11-03T07:44:33.204Z,12.93
2022-11-03T07:47:04.206Z,12.91
2022-11-03T07:49:32.394Z,12.84
2022-11-03T07:52:01.127Z,12.84
2022-11-03T07:54:31.379Z,12.88
2022-11-03T07:57:02.284Z,12.88
2022-11-03T07:59:34.351Z,12.88
2022-11-03T08:02:15.876Z,12.88
2022-11-03T08:04:44.147Z,12.91
2022-11-03T08:07:12.295Z,12.95
2022-11-03T08:09:40.503Z,12.99
2022-11-03T08:12:08.846Z,13.00
2022-11-03T08:14:38.080Z,13.01
2022-11-03T08:17:07.670Z,13.02
2022-11-03T08:19:36.033Z,13.07
2022-11-03T08:22:04.350Z,13.10
2022-11-03T08:24:32.611Z,13.16
2022-11-03T08:27:01.058Z,13.17
2022-11-03T08:29:29.277Z,13.22
2022-11-03T08:31:57.815Z,13.21
2022-11-03T08:34:27.457Z,13.19
2022-11-03T08:36:55.734Z,13.21
2022-11-03T08:39:24.091Z,13.16
2022-11-03T08:41:52.373Z,13.15
2022-11-03T08:44:20.714Z,13.19
2022-11-03T08:46:49.171Z,13.15
2022-11-03T08:49:17.349Z,13.17
2022-11-03T08:51:46.934Z,13.16
2022-11-03T08:54:15.117Z,13.15
2022-11-03T08:56:43.846Z,13.07
2022-11-03T08:59:12.095Z,13.09
2022-11-03T09:01:40.527Z,13.08
2022-11-03T09:04:08.933Z,13.07
2022-11-03T09:06:37.231Z,13.09
2022-11-03T09:11:55.109Z,13.18
2022-11-03T09:14:23.364Z,13.25
2022-11-03T09:16:51.626Z,13.25
2022-11-03T09:19:19.860Z,13.29
2022-11-03T09:21:48.056Z,13.33
2022-11-03T09:24:17.601Z,13.32
2022-11-03T09:26:45.759Z,13.30
2022-11-03T09:29:14.010Z,13.33
2022-11-03T09:31:42.310Z,13.25
2022-11-03T09:34:10.622Z,13.26
2022-11-03T09:36:38.881Z,13.35
2022-11-03T09:39:07.400Z,13.43
2022-11-03T09:41:57.188Z,13.47
2022-11-03T09:44:26.253Z,13.51
2022-11-03T09:46:58.210Z,13.48
2022-11-03T09:49:27.585Z,13.48
2022-11-03T09:51:56.748Z,13.49
2022-11-03T09:54:26.934Z,13.60
2022-11-03T09:56:58.886Z,13.66
2022-11-03T09:59:27.055Z,13.80
2022-11-03T10:01:55.560Z,13.86
2022-11-03T10:04:28.379Z,13.90
2022-11-03T10:06:57.778Z,14.01
2022-11-03T10:09:28.466Z,14.08
2022-11-03T10:11:58.229Z,14.07
2022-11-03T10:14:26.600Z,14.26
2022-11-03T10:17:00.225Z,14.32
2022-11-03T10:19:28.785Z,14.27
2022-11-03T10:21:57.049Z,14.26
2022-11-03T10:24:26.590Z,14.37
2022-11-03T10:26:57.154Z,14.71
2022-11-03T10:29:26.899Z,14.88
2022-11-03T10:31:56.897Z,14.92
2022-11-03T10:34:28.503Z,14.98
2022-11-03T10:37:20.755Z,15.15
2022-11-03T10:39:49.787Z,15.24
2022-11-03T10:42:21.924Z,15.09
2022-11-03T10:44:54.017Z,15.01
2022-11-03T10:47:32.252Z,14.91
2022-11-03T10:50:00.864Z,14.96
2022-11-03T10:52:31.403Z,15.16
2022-11-03T10:55:00.894Z,15.29
2022-11-03T10:57:30.506Z,15.66
2022-11-03T10:59:58.972Z,15.75
2022-11-03T11:02:31.314Z,15.96
2022-11-03T11:05:01.387Z,16.28
2022-11-03T11:07:34.796Z,16.27
2022-11-03T11:10:08.468Z,16.52
2022-11-03T11:12:38.159Z,16.18
2022-11-03T11:15:42.412Z,15.82
2022-11-03T11:18:11.642Z,15.82
2022-11-03T11:20:41.499Z,15.77
2022-11-03T11:23:53.399Z,15.96
2022-11-03T11:26:39.866Z,15.93
2022-11-03T11:29:45.064Z,15.86
2022-11-03T11:32:53.272Z,15.83
2022-11-03T11:36:16.257Z,16.19
2022-11-03T11:42:13.417Z,16.28
2022-11-03T11:44:59.918Z,16.19
2022-11-03T11:47:45.606Z,16.08
2022-11-03T11:50:29.488Z,16.10
2022-11-03T11:53:00.866Z,16.07
2022-11-03T11:55:39.169Z,16.03
2022-11-03T11:58:18.220Z,15.89
2022-11-03T12:00:55.567Z,15.75
2022-11-03T12:03:29.357Z,15.66
2022-11-03T12:05:58.225Z,15.61
2022-11-03T12:08:32.484Z,15.68
2022-11-03T12:11:02.882Z,15.89
2022-11-03T12:13:52.811Z,15.97
2022-11-03T12:16:31.762Z,16.01
2022-11-03T12:19:37.490Z,15.95
2022-11-03T12:22:06.516Z,16.16
2022-11-03T12:24:50.704Z,16.37
2022-11-03T12:27:23.186Z,16.41
2022-11-03T12:29:53.189Z,16.36
2022-11-03T12:32:37.136Z,16.29
2022-11-03T12:35:06.513Z,16.18
2022-11-03T12:37:34.703Z,16.20
2022-11-03T12:40:02.943Z,16.30
2022-11-03T12:42:31.119Z,16.32
2022-11-03T12:45:01.119Z,16.34
2022-11-03T12:47:29.499Z,16.14
2022-11-03T12:49:57.688Z,16.08
2022-11-03T12:52:25.946Z,15.97
2022-11-03T12:54:54.308Z,15.85
2022-11-03T12:57:22.642Z,15.80
2022-11-03T12:59:51.471Z,15.70
2022-11-03T13:02:21.234Z,15.54
2022-11-03T13:04:49.520Z,15.49
2022-11-03T13:07:24.115Z,15.52
2022-11-03T13:09:55.042Z,15.55
2022-11-03T13:12:32.373Z,15.63
2022-11-03T13:15:01.327Z,15.61
2022-11-03T13:17:40.278Z,15.65
2022-11-03T13:20:19.314Z,15.56
2022-11-03T13:22:47.584Z,15.48
2022-11-03T13:25:16.095Z,15.39
2022-11-03T13:27:44.432Z,15.26
2022-11-03T13:30:14.236Z,15.19
2022-11-03T13:32:43.960Z,15.11
2022-11-03T13:35:14.095Z,15.08
2022-11-03T13:37:42.855Z,15.07
2022-11-03T13:40:29.233Z,14.89
2022-11-03T13:43:01.305Z,14.78
2022-11-03T13:45:30.288Z,14.74
2022-11-03T13:50:51.008Z,14.58
2022-11-03T13:56:11.399Z,14.53
2022-11-03T14:01:32.034Z,14.54
2022-11-03T14:06:50.069Z,14.51
2022-11-03T14:09:18.340Z,14.35
2022-11-03T14:12:04.025Z,14.21
2022-11-03T14:14:32.992Z,14.22
2022-11-03T14:17:01.207Z,14.20
2022-11-03T14:19:38.143Z,14.13
2022-11-03T14:22:12.178Z,14.09
2022-11-03T14:24:40.822Z,14.01
2022-11-03T14:27:09.097Z,13.98
2022-11-03T14:29:37.550Z,13.94
2022-11-03T14:32:06.283Z,13.91
2022-11-03T14:34:36.171Z,13.86
2022-11-03T14:37:04.571Z,13.79
2022-11-03T14:39:32.960Z,13.79
2022-11-03T14:42:06.493Z,13.73
2022-11-03T14:44:36.349Z,13.64
2022-11-03T14:47:05.752Z,13.52
2022-11-03T14:49:36.182Z,13.45
2022-11-03T14:52:07.319Z,13.34
2022-11-03T14:54:37.162Z,13.22
2022-11-03T14:57:06.171Z,13.15
2022-11-03T14:59:35.217Z,13.07
2022-11-03T15:02:04.572Z,13.03
2022-11-03T15:04:32.997Z,13.01
2022-11-03T15:07:02.575Z,12.99
2022-11-03T15:09:30.847Z,12.92
2022-11-03T15:11:59.067Z,12.87
2022-11-03T15:14:27.336Z,12.79
2022-11-03T15:16:55.605Z,12.74
2022-11-03T15:19:23.910Z,12.64
2022-11-03T15:21:52.148Z,12.60
2022-11-03T15:27:10.010Z,12.47
2022-11-03T15:29:38.600Z,12.38
2022-11-03T15:32:07.143Z,12.30
2022-11-03T15:34:35.471Z,12.26
2022-11-03T15:37:03.737Z,12.17
2022-11-03T15:39:33.542Z,12.13
2022-11-03T15:42:01.724Z,12.03
2022-11-03T15:44:29.902Z,12.06
2022-11-03T15:46:58.151Z,12.01
2022-11-03T15:49:26.536Z,11.94
2022-11-03T15:51:55.059Z,11.92
2022-11-03T15:54:23.316Z,11.92
2022-11-03T15:56:52.877Z,11.88
2022-11-03T15:59:21.079Z,11.83
2022-11-03T16:01:49.402Z,11.81
2022-11-03T16:04:17.715Z,11.76
2022-11-03T16:07:06.862Z,11.75
2022-11-03T16:09:34.186Z,11.73
2022-11-03T16:12:04.039Z,11.70
2022-11-03T16:14:32.312Z,11.68
2022-11-03T16:17:00.656Z,11.68
2022-11-03T16:19:28.876Z,11.62
2022-11-03T16:21:57.118Z,11.66
2022-11-03T16:24:33.269Z,11.64
2022-11-03T16:27:05.378Z,11.62
2022-11-03T16:29:33.633Z,11.61
2022-11-03T16:32:01.852Z,11.58
2022-11-03T16:34:30.083Z,11.59
2022-11-03T16:36:58.449Z,11.59
2022-11-03T16:39:26.798Z,11.59
2022-11-03T16:41:55.220Z,11.57
2022-11-03T16:44:24.871Z,11.59
2022-11-03T16:46:53.074Z,11.56
2022-11-03T16:49:23.838Z,11.60
2022-11-03T16:51:52.321Z,11.59
2022-11-03T16:54:20.649Z,11.59
2022-11-03T16:56:54.293Z,11.56
2022-11-03T16:59:26.446Z,11.58
2022-11-03T17:01:55.611Z,11.58
2022-11-03T17:04:23.884Z,11.60
2022-11-03T17:06:52.134Z,11.62
2022-11-03T17:09:21.018Z,11.62
2022-11-03T17:11:49.262Z,11.66
2022-11-03T17:14:17.500Z,11.62
2022-11-03T17:16:48.542Z,11.62
2022-11-03T17:19:16.997Z,11.62
2022-11-03T17:21:45.457Z,11.62
2022-11-03T17:24:13.777Z,11.62
2022-11-03T17:26:52.948Z,11.66
2022-11-03T17:29:24.261Z,11.64
2022-11-03T17:31:54.028Z,11.63
2022-11-03T17:34:25.178Z,11.68
2022-11-03T17:36:54.253Z,11.68
2022-11-03T17:39:28.449Z,11.70
2022-11-03T17:42:07.894Z,11.70
2022-11-03T17:44:36.833Z,11.69
2022-11-03T17:47:06.537Z,11.67
2022-11-03T17:49:34.853Z,11.53
2022-11-03T17:52:03.343Z,11.55
2022-11-03T17:54:32.803Z,11.51
2022-11-03T17:57:02.624Z,11.57
2022-11-03T17:59:31.105Z,11.57
2022-11-03T18:01:59.607Z,11.56
2022-11-03T18:04:29.333Z,11.59
2022-11-03T18:06:57.550Z,11.59
2022-11-03T18:09:25.734Z,11.64
2022-11-03T18:12:11.649Z,11.63
2022-11-03T18:14:40.124Z,11.61
2022-11-03T18:17:10.405Z,11.61
2022-11-03T18:19:40.355Z,11.58
2022-11-03T18:22:10.481Z,11.56
2022-11-03T18:24:38.752Z,11.56
2022-11-03T18:27:12.056Z,11.55
2022-11-03T18:29:40.331Z,11.53
2022-11-03T18:32:15.767Z,11.53
2022-11-03T18:34:45.578Z,11.53
2022-11-03T18:37:14.062Z,11.51
2022-11-03T18:39:42.336Z,11.51
2022-11-03T18:42:15.271Z,11.48
2022-11-03T18:44:44.554Z,11.46
2022-11-03T18:47:12.884Z,11.49
2022-11-03T18:49:41.157Z,11.48
2022-11-03T18:52:15.561Z,11.49
2022-11-03T18:54:46.615Z,11.46
2022-11-03T18:57:14.970Z,11.47
2022-11-03T18:59:45.575Z,11.43
2022-11-03T19:02:18.513Z,11.44
2022-11-03T19:04:50.160Z,11.45
2022-11-03T19:07:25.700Z,11.43
2022-11-03T19:09:54.046Z,11.44
2022-11-03T19:12:22.505Z,11.44
2022-11-03T19:14:51.234Z,11.43
2022-11-03T19:17:23.440Z,11.41
2022-11-03T19:19:53.343Z,11.38
2022-11-03T19:22:24.312Z,11.39
2022-11-03T19:24:52.709Z,11.37
2022-11-03T19:27:26.358Z,11.36
2022-11-03T19:29:55.851Z,11.32
2022-11-03T19:32:27.351Z,11.36
2022-11-03T19:35:00.148Z,11.30
2022-11-03T19:37:35.913Z,11.26
2022-11-03T19:40:21.777Z,11.23
2022-11-03T19:42:49.059Z,11.20
2022-11-03T19:45:19.125Z,11.18
2022-11-03T19:48:18.164Z,11.16
2022-11-03T19:50:40.711Z,11.14
2022-11-03T19:53:17.050Z,11.10
2022-11-03T19:55:45.432Z,11.11
2022-11-03T19:58:16.545Z,11.11
2022-11-03T20:00:45.144Z,11.14
2022-11-03T20:03:13.447Z,11.15
2022-11-03T20:05:48.106Z,11.16
2022-11-03T20:08:21.270Z,11.13
2022-11-03T20:10:49.857Z,11.09
2022-11-03T20:13:20.483Z,11.09
2022-11-03T20:15:49.053Z,11.11
2022-11-03T20:18:17.697Z,11.10
2022-11-03T20:20:48.521Z,11.09
2022-11-03T20:23:24.403Z,11.07
2022-11-03T20:25:55.921Z,11.02
2022-11-03T20:28:26.177Z,11.03
2022-11-03T20:30:54.896Z,11.04
2022-11-03T20:33:24.994Z,11.04
2022-11-03T20:35:54.690Z,11.04
2022-11-03T20:38:26.024Z,10.97
2022-11-03T20:40:58.674Z,11.03
2022-11-03T20:43:30.235Z,10.98
2022-11-03T20:45:58.540Z,10.99
2022-11-03T20:48:26.993Z,10.98
2022-11-03T20:50:55.720Z,10.97
2022-11-03T20:53:26.591Z,10.95
2022-11-03T20:55:55.054Z,10.92
2022-11-03T20:58:23.313Z,10.86
2022-11-03T21:00:51.911Z,10.85
2022-11-03T21:03:37.909Z,10.79
2022-11-03T21:06:13.607Z,10.81
2022-11-03T21:08:43.955Z,10.80
2022-11-03T21:11:27.663Z,10.80
2022-11-03T21:13:58.251Z,10.71
2022-11-03T21:16:44.980Z,10.67
2022-11-03T21:19:36.166Z,10.62
2022-11-03T21:22:30.781Z,10.57
2022-11-03T21:25:02.285Z,10.48
2022-11-03T21:27:30.612Z,10.42
2022-11-03T21:29:59.944Z,10.37
2022-11-03T21:32:28.763Z,10.35
2022-11-03T21:34:57.075Z,10.34
2022-11-03T21:37:25.443Z,10.24
2022-11-03T21:39:53.742Z,10.23
2022-11-03T21:42:41.070Z,10.23
2022-11-03T21:45:10.261Z,10.21
2022-11-03T21:47:38.616Z,10.20
2022-11-03T21:50:06.501Z,10.15
2022-11-03T21:52:34.824Z,10.10
2022-11-03T21:55:04.725Z,10.04
2022-11-03T21:57:34.430Z,10.04
2022-11-03T22:00:02.991Z,10.04
2022-11-03T22:02:32.896Z,9.98
2022-11-03T22:05:01.490Z,10.00
2022-11-03T22:07:32.970Z,10.04
2022-11-03T22:10:01.245Z,9.98
2022-11-03T22:12:29.664Z,9.96
2022-11-03T22:15:16.653Z,9.92
2022-11-03T22:17:45.460Z,9.95
2022-11-03T22:20:31.465Z,9.92
2022-11-03T22:23:18.514Z,9.89
2022-11-03T22:26:05.009Z,9.84
2022-11-03T22:28:33.339Z,9.86
2022-11-03T22:31:23.562Z,9.80
2022-11-03T22:34:08.986Z,9.71
2022-11-03T22:36:37.544Z,9.68
2022-11-03T22:39:23.599Z,9.66
2022-11-03T22:42:09.121Z,9.60
2022-11-03T22:44:54.703Z,9.61
2022-11-03T22:47:24.256Z,9.54
2022-11-03T22:49:52.542Z,9.50
2022-11-03T22:52:20.842Z,9.50
2022-11-03T22:54:48.152Z,9.46
2022-11-03T22:57:16.530Z,9.45
2022-11-03T22:59:44.762Z,9.44
2022-11-03T23:02:13.079Z,9.36
2022-11-03T23:04:42.664Z,9.34
2022-11-03T23:07:10.820Z,9.37
2022-11-03T23:09:39.130Z,9.27
2022-11-03T23:12:07.658Z,9.24
2022-11-03T23:14:49.800Z,9.21
2022-11-03T23:17:17.948Z,9.16
2022-11-03T23:20:05.321Z,9.21
2022-11-03T23:22:33.547Z,9.17
2022-11-03T23:25:01.079Z,9.18
2022-11-03T23:27:29.607Z,9.11
2022-11-03T23:29:57.802Z,9.10
2022-11-03T23:32:26.030Z,9.09
2022-11-03T23:34:55.556Z,9.04
2022-11-03T23:37:23.801Z,9.04
2022-11-03T23:39:51.954Z,8.97
2022-11-03T23:42:20.187Z,8.97
2022-11-03T23:45:05.709Z,8.95
2022-11-03T23:47:51.153Z,8.94
2022-11-03T23:50:20.953Z,8.91
2022-11-03T23:52:49.203Z,8.90
2022-11-03T23:55:17.520Z,8.90
2022-11-03T23:58:03.319Z,8.86
